Time;durP1;ratioP1;P1;durP2;ratioP2;P2;SDS_P1;SDS_P2;PMS_P1;PMS_P2;Temp;Humidity;BMP_temperature;BMP_pressure;BME280_temperature;BME280_humidity;BME280_pressure;Samples;Min_cycle;Max_cycle;Signal;HPM_P1;HPM_P2
2022/12/23 00:00:30;;;;;;;;;69.00;51.00;27.10;44.50;;;;;;109323;1269;49515;-64
2022/12/23 00:03:17;;;;;;;;;70.00;56.50;27.10;44.40;;;;;;109469;1266;51017;-65
2022/12/23 00:05:44;;;;;;;;;68.33;52.00;27.10;44.40;;;;;;109495;1268;45366;-67
2022/12/23 00:08:13;;;;;;;;;73.00;59.00;27.10;44.40;;;;;;109365;1267;55900;-65
2022/12/23 00:10:43;;;;;;;;;67.00;52.00;27.10;44.50;;;;;;109510;1265;55439;-66
2022/12/23 00:16:15;;;;;;;;;74.00;55.00;27.00;44.70;;;;;;109578;1265;51229;-64
2022/12/23 00:18:42;;;;;;;;;72.50;55.50;27.00;44.70;;;;;;109445;1265;45698;-64
2022/12/23 00:21:12;;;;;;;;;70.50;55.00;27.00;44.80;;;;;;109500;1266;56479;-65
2022/12/23 00:23:41;;;;;;;;;69.00;56.00;27.00;44.90;;;;;;109480;1262;56727;-63
2022/12/23 00:26:16;;;;;;;;;72.00;55.00;27.00;45.00;;;;;;109467;1270;48905;-64
2022/12/23 00:28:43;;;;;;;;;77.00;59.33;27.00;45.40;;;;;;109477;1268;50237;-67
2022/12/23 00:31:12;;;;;;;;;66.33;52.00;26.90;45.20;;;;;;109360;1267;45802;-65
2022/12/23 00:33:44;;;;;;;;;72.00;56.00;26.90;45.20;;;;;;109470;1270;55835;-65
2022/12/23 00:36:19;;;;;;;;;70.00;57.00;26.90;45.30;;;;;;109464;1268;55819;-65
2022/12/23 00:44:21;;;;;;;;;73.00;59.00;26.80;45.30;;;;;;109470;1266;44927;-66
2022/12/23 00:46:48;;;;;;;;;71.33;55.33;26.80;45.30;;;;;;109527;1262;55663;-65
2022/12/23 00:52:04;;;;;;;;;66.50;51.00;26.70;45.30;;;;;;109501;1265;48922;-64
2022/12/23 00:54:32;;;;;;;;;69.00;55.00;26.70;45.30;;;;;;109556;1269;49188;-65
2022/12/23 00:57:00;;;;;;;;;69.00;50.50;26.70;45.10;;;;;;109478;1268;45186;-65
2022/12/23 00:59:27;;;;;;;;;65.00;49.00;26.70;44.90;;;;;;109563;1266;56247;-62
2022/12/23 01:07:25;;;;;;;;;65.00;48.00;26.70;44.70;;;;;;109498;1263;48964;-64
2022/12/23 01:09:52;;;;;;;;;67.00;51.50;26.60;44.60;;;;;;109470;1262;45398;-66
2022/12/23 01:12:19;;;;;;;;;68.00;49.67;26.60;44.50;;;;;;109414;1266;55523;-63
2022/12/23 01:14:46;;;;;;;;;77.00;56.00;26.60;44.40;;;;;;109490;1268;56937;-65
2022/12/23 01:17:13;;;;;;;;;70.33;53.67;26.60;44.50;;;;;;109482;1266;49791;-64
2022/12/23 01:19:40;;;;;;;;;63.00;49.00;26.50;44.40;;;;;;109517;1268;50041;-64
2022/12/23 01:22:07;;;;;;;;;67.50;50.00;26.50;44.40;;;;;;109540;1262;44961;-63
2022/12/23 01:24:34;;;;;;;;;64.00;49.50;26.50;44.50;;;;;;109507;1270;55170;-64
2022/12/23 01:27:01;;;;;;;;;68.00;50.00;26.50;44.50;;;;;;109460;1268;55830;-63
2022/12/23 01:29:28;;;;;;;;;62.00;48.00;26.50;44.50;;;;;;109455;1266;49499;-64
2022/12/23 01:31:55;;;;;;;;;61.00;48.00;26.40;44.40;;;;;;109500;1266;49144;-65
2022/12/23 01:34:22;;;;;;;;;60.00;47.00;26.40;44.40;;;;;;109497;1262;44446;-64
2022/12/23 01:36:49;;;;;;;;;63.00;48.00;26.30;44.30;;;;;;109324;1268;55406;-61
2022/12/23 01:39:16;;;;;;;;;65.00;49.00;26.30;44.20;;;;;;109563;1265;55837;-64
2022/12/23 01:44:47;;;;;;;;;65.50;50.00;26.20;44.20;;;;;;109477;1266;50293;-64
2022/12/23 01:47:33;;;;;;;;;58.00;45.50;26.20;44.20;;;;;;109524;1266;45011;-64
2022/12/23 01:50:23;;;;;;;;;59.00;47.75;26.10;44.20;;;;;;109517;1270;55849;-63
2022/12/23 01:53:19;;;;;;;;;60.67;47.67;26.10;44.40;;;;;;109521;1270;55580;-64
2022/12/23 01:55:55;;;;;;;;;61.00;46.00;26.10;44.20;;;;;;109476;1268;49752;-63
2022/12/23 01:58:26;;;;;;;;;59.67;44.67;26.10;44.10;;;;;;109489;1268;49223;-68
2022/12/23 02:03:41;;;;;;;;;60.33;47.33;26.00;43.90;;;;;;109468;1261;55734;-67
2022/12/23 02:09:19;;;;;;;;;59.00;47.00;25.90;43.80;;;;;;109355;1268;49493;-64
2022/12/23 02:12:10;;;;;;;;;60.00;48.00;25.90;44.40;;;;;;109408;1266;49644;-63
2022/12/23 02:18:18;;;;;;;;;59.00;46.00;25.80;43.70;;;;;;109561;1265;55706;-63
2022/12/23 02:20:51;;;;;;;;;67.00;50.50;25.80;43.90;;;;;;109536;1262;55449;-64
2022/12/23 02:23:33;;;;;;;;;61.33;46.33;25.80;43.70;;;;;;109547;1265;49335;-63
2022/12/23 02:26:38;;;;;;;;;57.00;46.00;25.70;43.70;;;;;;109541;1269;49474;-63
2022/12/23 02:29:27;;;;;;;;;60.50;45.50;25.70;43.70;;;;;;109487;1265;44823;-64
2022/12/23 02:32:24;;;;;;;;;58.00;45.50;25.60;43.60;;;;;;109511;1268;56431;-64
2022/12/23 02:34:55;;;;;;;;;53.50;43.50;25.60;43.60;;;;;;109463;1268;55641;-64
2022/12/23 02:37:53;;;;;;;;;57.00;46.00;25.60;43.60;;;;;;109495;1268;50655;-63
2022/12/23 02:40:46;;;;;;;;;57.00;44.00;25.50;43.50;;;;;;109541;1265;49119;-64
2022/12/23 02:43:37;;;;;;;;;59.00;47.00;25.50;43.70;;;;;;109405;1265;44693;-64
2022/12/23 02:46:19;;;;;;;;;63.00;50.00;25.50;43.50;;;;;;109472;1268;55305;-64
2022/12/23 02:48:56;;;;;;;;;57.00;46.00;25.50;43.40;;;;;;109337;1264;56790;-65
2022/12/23 02:51:29;;;;;;;;;57.00;45.67;25.50;43.40;;;;;;109516;1268;49959;-63
2022/12/23 02:53:59;;;;;;;;;62.00;48.00;25.40;43.40;;;;;;109499;1270;50131;-64
2022/12/23 02:56:29;;;;;;;;;59.00;47.67;25.40;43.40;;;;;;109527;1268;45380;-63
2022/12/23 02:59:11;;;;;;;;;60.00;46.00;25.40;43.30;;;;;;109469;1266;56216;-64
2022/12/23 03:01:38;;;;;;;;;65.33;50.33;25.40;43.40;;;;;;109498;1268;56267;-63
2022/12/23 03:04:05;;;;;;;;;60.00;45.00;25.40;43.30;;;;;;109467;1266;49917;-63
2022/12/23 03:06:38;;;;;;;;;57.00;45.00;25.30;43.20;;;;;;109338;1268;49614;-63
2022/12/23 03:09:06;;;;;;;;;53.00;44.00;25.30;43.20;;;;;;109491;1262;44505;-64
2022/12/23 03:11:49;;;;;;;;;57.50;45.00;25.30;43.20;;;;;;109483;1261;55728;-64
2022/12/23 03:14:24;;;;;;;;;58.00;46.00;25.30;43.20;;;;;;109504;1268;55405;-64
2022/12/23 03:16:59;;;;;;;;;62.00;47.00;25.20;43.10;;;;;;109484;1262;49393;-63
2022/12/23 03:19:32;;;;;;;;;56.50;45.00;25.20;43.10;;;;;;109513;1265;49398;-65
2022/12/23 03:22:20;;;;;;;;;57.00;44.00;25.20;43.20;;;;;;109547;1265;45293;-63
2022/12/23 03:25:02;;;;;;;;;53.00;44.00;25.20;43.20;;;;;;109559;1265;56449;-63
2022/12/23 03:27:30;;;;;;;;;;;25.20;43.20;;;;;;109533;1265;56836;-64
2022/12/23 03:30:09;;;;;;;;;51.33;42.33;25.20;43.20;;;;;;109505;1266;49300;-63
2022/12/23 03:32:43;;;;;;;;;57.00;46.00;25.30;43.20;;;;;;109334;1269;49987;-64
2022/12/23 03:35:14;;;;;;;;;51.00;41.00;25.30;43.20;;;;;;109543;1267;44941;-63
2022/12/23 03:37:44;;;;;;;;;54.00;44.00;25.30;43.20;;;;;;109554;1265;56003;-63
2022/12/23 03:40:17;;;;;;;;;57.00;44.00;25.30;43.20;;;;;;109574;1265;56186;-63
2022/12/23 03:42:49;;;;;;;;;53.00;42.00;25.40;43.30;;;;;;109543;1265;50993;-63
2022/12/23 03:45:20;;;;;;;;;55.67;44.00;25.40;43.30;;;;;;109510;1262;50180;-63
2022/12/23 03:47:55;;;;;;;;;52.00;43.00;25.40;43.20;;;;;;109543;1265;46231;-63
2022/12/23 03:50:23;;;;;;;;;61.00;47.00;25.50;43.30;;;;;;109531;1265;56792;-64
2022/12/23 03:53:13;;;;;;;;;52.00;41.00;25.50;43.20;;;;;;109462;1268;55905;-64
2022/12/23 03:55:44;;;;;;;;;51.00;42.00;25.50;43.10;;;;;;109556;1265;51184;-63
2022/12/23 03:58:21;;;;;;;;;55.00;45.00;25.50;42.90;;;;;;109530;1265;49188;-63
2022/12/23 04:00:56;;;;;;;;;54.00;44.00;25.50;42.70;;;;;;109532;1265;45301;-62
2022/12/23 04:03:36;;;;;;;;;58.00;46.50;25.50;42.30;;;;;;109561;1264;55926;-62
2022/12/23 04:06:07;;;;;;;;;57.00;45.50;25.50;42.20;;;;;;109573;1265;56601;-63
2022/12/23 04:08:36;;;;;;;;;59.00;46.00;25.50;41.70;;;;;;109559;1262;49545;-63
2022/12/23 04:11:04;;;;;;;;;61.50;49.00;25.60;41.50;;;;;;109483;1268;49380;-63
2022/12/23 04:13:31;;;;;;;;;58.50;46.50;25.60;41.10;;;;;;109580;1266;45278;-64
2022/12/23 04:16:00;;;;;;;;;62.00;48.00;25.60;40.90;;;;;;109531;1265;56417;-64
2022/12/23 04:18:27;;;;;;;;;63.00;50.00;25.70;41.40;;;;;;109534;1262;55819;-64
2022/12/23 04:20:54;;;;;;;;;64.00;49.67;25.70;40.50;;;;;;109577;1265;49732;-63
2022/12/23 04:23:21;;;;;;;;;63.00;49.00;25.70;40.40;;;;;;109570;1266;49058;-64
2022/12/23 04:25:48;;;;;;;;;63.00;49.50;25.70;40.20;;;;;;109585;1269;45775;-64
2022/12/23 04:28:17;;;;;;;;;64.00;52.00;25.80;40.30;;;;;;109533;1265;55236;-64
2022/12/23 04:30:43;;;;;;;;;63.00;49.50;25.80;40.10;;;;;;109513;1264;55965;-64
2022/12/23 04:33:11;;;;;;;;;63.00;50.00;25.80;39.90;;;;;;109478;1268;49397;-63
2022/12/23 04:35:38;;;;;;;;;62.00;49.00;25.80;39.70;;;;;;109474;1268;50297;-64
2022/12/23 04:38:05;;;;;;;;;66.00;50.50;25.80;39.60;;;;;;109542;1266;45076;-63
2022/12/23 04:40:32;;;;;;;;;63.50;48.50;25.80;39.80;;;;;;109581;1265;56251;-64
2022/12/23 04:43:00;;;;;;;;;62.50;50.00;25.80;39.70;;;;;;109572;1268;55721;-70
2022/12/23 04:45:27;;;;;;;;;62.00;48.00;25.80;39.70;;;;;;109495;1265;49684;-63
2022/12/23 04:47:55;;;;;;;;;60.50;46.50;25.80;39.80;;;;;;109532;1261;50297;-62
2022/12/23 04:50:21;;;;;;;;;62.00;50.00;25.80;39.80;;;;;;109453;1268;45567;-63
2022/12/23 04:52:48;;;;;;;;;61.50;50.00;25.80;39.90;;;;;;109523;1265;55720;-63
2022/12/23 04:55:15;;;;;;;;;67.00;50.50;25.80;40.10;;;;;;109504;1266;56044;-64
2022/12/23 04:57:42;;;;;;;;;62.50;48.00;25.80;40.20;;;;;;109480;1266;50223;-64
2022/12/23 05:00:10;;;;;;;;;60.00;46.50;25.80;40.30;;;;;;109523;1266;49642;-63
2022/12/23 05:02:37;;;;;;;;;64.00;49.00;25.70;40.20;;;;;;109481;1264;44962;-64
2022/12/23 05:05:05;;;;;;;;;64.00;50.50;25.80;40.20;;;;;;109397;1269;55612;-63
2022/12/23 05:07:31;;;;;;;;;60.00;49.00;25.80;40.20;;;;;;109458;1268;55859;-63
2022/12/23 05:10:00;;;;;;;;;64.00;49.00;25.70;40.00;;;;;;109518;1266;49505;-64
2022/12/23 05:12:29;;;;;;;;;66.00;52.00;25.70;40.00;;;;;;109552;1268;48956;-63
2022/12/23 05:14:56;;;;;;;;;61.33;48.00;25.70;40.80;;;;;;109443;1267;45311;-63
2022/12/23 05:17:23;;;;;;;;;68.50;53.50;25.70;40.10;;;;;;109507;1266;57122;-65
2022/12/23 05:19:51;;;;;;;;;60.00;48.00;25.70;40.00;;;;;;109518;1266;55413;-62
2022/12/23 05:22:18;;;;;;;;;63.67;48.67;25.70;40.10;;;;;;109502;1262;49610;-63
2022/12/23 05:24:45;;;;;;;;;63.50;49.50;25.70;40.20;;;;;;109475;1266;50165;-62
2022/12/23 05:27:11;;;;;;;;;65.33;49.33;25.80;40.40;;;;;;109430;1268;45396;-64
2022/12/23 05:29:38;;;;;;;;;64.50;51.00;25.80;40.60;;;;;;109569;1265;56066;-63
2022/12/23 05:32:05;;;;;;;;;60.50;48.00;25.80;40.50;;;;;;109476;1268;56199;-63
2022/12/23 05:34:32;;;;;;;;;66.00;51.00;25.80;40.50;;;;;;109469;1268;49742;-63
2022/12/23 05:36:59;;;;;;;;;63.50;48.50;25.90;40.60;;;;;;109541;1265;49171;-64
2022/12/23 05:39:26;;;;;;;;;68.00;51.50;25.90;40.60;;;;;;109477;1265;45331;-70
2022/12/23 05:41:53;;;;;;;;;69.00;51.00;26.00;40.70;;;;;;109489;1265;56055;-66
2022/12/23 05:44:20;;;;;;;;;62.00;50.00;26.00;40.60;;;;;;109498;1265;55062;-64
2022/12/23 05:46:47;;;;;;;;;68.00;52.00;26.00;40.60;;;;;;109504;1262;49595;-64
2022/12/23 05:49:14;;;;;;;;;66.00;51.00;26.00;40.00;;;;;;109502;1265;48963;-64
2022/12/23 05:51:41;;;;;;;;;67.00;49.00;26.00;39.70;;;;;;109526;1265;45253;-65
2022/12/23 05:54:08;;;;;;;;;70.00;52.50;26.00;40.00;;;;;;109459;1262;56046;-64
2022/12/23 05:56:35;;;;;;;;;68.00;52.00;26.00;39.90;;;;;;109534;1269;56606;-63
2022/12/23 05:59:02;;;;;;;;;68.00;52.00;26.00;39.80;;;;;;109514;1270;49144;-64
2022/12/23 06:01:29;;;;;;;;;67.67;50.00;26.10;40.00;;;;;;109527;1266;49085;-65
2022/12/23 06:03:55;;;;;;;;;76.00;61.33;26.10;39.80;;;;;;109544;1265;45102;-66
2022/12/23 06:06:22;;;;;;;;;70.00;53.00;26.10;40.30;;;;;;109521;1265;55611;-65
2022/12/23 06:08:49;;;;;;;;;71.33;55.67;26.10;40.50;;;;;;109480;1268;55412;-64
2022/12/23 06:11:16;;;;;;;;;67.00;51.50;26.10;39.90;;;;;;109515;1265;49656;-63
2022/12/23 06:13:43;;;;;;;;;71.00;51.67;26.10;39.80;;;;;;109474;1265;48967;-63
2022/12/23 06:16:10;;;;;;;;;68.33;52.33;26.10;39.90;;;;;;109508;1269;45132;-64
2022/12/23 06:18:37;;;;;;;;;68.00;55.00;26.10;39.80;;;;;;109362;1268;56132;-68
2022/12/23 06:21:04;;;;;;;;;67.00;52.00;26.10;39.60;;;;;;109344;1268;56667;-72
